createdAt,value
2022-08-17T00:00:40.542Z,16.83
2022-08-17T00:05:48.668Z,16.62
2022-08-17T00:10:56.632Z,16.61
2022-08-17T00:16:04.698Z,16.51
2022-08-17T00:21:11.238Z,16.28
2022-08-17T00:26:19.598Z,16.14
2022-08-17T00:31:28.034Z,16.2
2022-08-17T00:36:36.926Z,16.3
2022-08-17T00:41:44.548Z,16.54
2022-08-17T00:46:51.738Z,16.58
2022-08-17T00:51:59.443Z,16.48
2022-08-17T00:57:07.048Z,16.51
2022-08-17T01:02:15.886Z,16.86
2022-08-17T01:07:23.434Z,16.84
2022-08-17T01:12:31.493Z,16.71
2022-08-17T01:17:38.813Z,16.88
2022-08-17T01:22:47.763Z,16.98
2022-08-17T01:37:06.310Z,16.56
2022-08-17T01:42:12.798Z,16.32
2022-08-17T01:47:22.328Z,15.94
2022-08-17T01:52:28.382Z,15.71
2022-08-17T01:57:36.215Z,15.64
2022-08-17T02:02:43.431Z,15.48
2022-08-17T02:07:50.568Z,15.39
2022-08-17T02:12:58.786Z,15.26
2022-08-17T02:18:06.307Z,15.1
2022-08-17T02:23:13.499Z,15.19
2022-08-17T02:28:21.127Z,15.07
2022-08-17T02:33:27.904Z,15.11
2022-08-17T02:38:36.895Z,15.04
2022-08-17T02:43:44.236Z,14.86
2022-08-17T02:48:52.340Z,14.65
2022-08-17T02:53:59.964Z,14.42
2022-08-17T02:59:07.515Z,14.32
2022-08-17T03:04:14.358Z,14.26
2022-08-17T03:09:22.324Z,14.29
2022-08-17T03:14:30.274Z,14.24
2022-08-17T03:19:37.322Z,14.1
2022-08-17T03:24:44.630Z,14.07
2022-08-17T03:29:52.213Z,14.33
2022-08-17T03:35:00.167Z,14.38
2022-08-17T03:40:07.292Z,14.32
2022-08-17T03:45:14.487Z,14.34
2022-08-17T03:50:22.870Z,14.34
2022-08-17T03:55:31.019Z,14.1
2022-08-17T04:00:37.334Z,14.08
2022-08-17T04:05:45.174Z,14.08
2022-08-17T04:10:54.046Z,14.0
2022-08-17T04:16:02.316Z,13.92
2022-08-17T04:21:10.131Z,13.96
2022-08-17T04:26:17.997Z,14.44
2022-08-17T04:31:25.637Z,15.02
2022-08-17T04:36:34.705Z,15.82
2022-08-17T04:41:44.265Z,16.65
2022-08-17T04:46:51.691Z,17.82
2022-08-17T04:52:07.261Z,18.72
2022-08-17T04:57:15.385Z,19.64
2022-08-17T05:02:22.315Z,20.43
2022-08-17T05:07:29.487Z,20.88
2022-08-17T05:12:37.382Z,21.42
2022-08-17T05:17:44.771Z,21.86
2022-08-17T05:22:52.497Z,22.16
2022-08-17T05:27:59.611Z,22.64
2022-08-17T05:33:07.867Z,23.48
2022-08-17T05:38:15.857Z,24.17
2022-08-17T05:43:24.039Z,24.66
2022-08-17T05:48:38.086Z,24.94
2022-08-17T05:53:45.854Z,25.25
2022-08-17T05:58:54.062Z,25.68
2022-08-17T06:04:01.887Z,26.12
2022-08-17T06:09:09.189Z,26.62
2022-08-17T06:14:16.983Z,27.12
2022-08-17T06:19:23.933Z,28.04
2022-08-17T06:24:31.524Z,29.08
2022-08-17T06:29:38.146Z,30.38
2022-08-17T06:34:45.748Z,32.0
2022-08-17T06:39:53.780Z,34.12
2022-08-17T06:45:00.391Z,35.81
2022-08-17T06:50:07.618Z,36.58
2022-08-17T06:55:15.282Z,37.54
2022-08-17T07:00:22.883Z,38.1
2022-08-17T07:05:31.093Z,37.97
2022-08-17T07:15:40.967Z,39.0
2022-08-17T07:16:43.776Z,39.18
2022-08-17T07:21:49.869Z,39.56
2022-08-17T07:26:57.575Z,39.74
2022-08-17T07:32:06.523Z,40.18
2022-08-17T07:37:13.840Z,40.01
2022-08-17T07:42:22.813Z,39.7
2022-08-17T07:47:30.172Z,39.29
2022-08-17T07:52:37.933Z,39.6
2022-08-17T07:57:45.002Z,38.97
2022-08-17T08:02:53.336Z,39.16
2022-08-17T08:08:02.948Z,38.57
2022-08-17T08:13:11.185Z,38.08
2022-08-17T08:23:47.711Z,36.7
2022-08-17T08:28:55.834Z,36.46
2022-08-17T08:34:03.453Z,36.08
2022-08-17T08:39:12.735Z,35.88
2022-08-17T08:44:20.653Z,36.65
2022-08-17T08:49:28.882Z,37.42
2022-08-17T08:54:37.288Z,38.28
2022-08-17T08:59:45.820Z,38.63
2022-08-17T09:04:54.242Z,39.03
2022-08-17T09:10:01.901Z,39.29
2022-08-17T09:15:09.865Z,39.88
2022-08-17T09:20:16.895Z,40.2
2022-08-17T09:25:24.359Z,39.92
2022-08-17T09:30:32.110Z,39.38
2022-08-17T09:35:40.387Z,39.3
2022-08-17T09:40:48.194Z,38.3
2022-08-17T09:45:56.614Z,38.52
2022-08-17T09:51:04.798Z,38.28
2022-08-17T09:56:12.412Z,38.5
2022-08-17T10:01:20.286Z,38.59
2022-08-17T10:06:27.413Z,38.97
2022-08-17T10:11:35.583Z,39.13
2022-08-17T10:16:43.710Z,39.74
2022-08-17T10:21:52.137Z,40.14
2022-08-17T10:26:59.013Z,40.52
2022-08-17T10:32:06.140Z,40.72
2022-08-17T10:37:13.813Z,41.01
2022-08-17T10:42:22.161Z,40.95
2022-08-17T10:47:29.249Z,41.04
2022-08-17T10:52:38.076Z,41.04
2022-08-17T10:57:45.594Z,40.9
2022-08-17T11:02:54.935Z,40.9
2022-08-17T11:08:02.169Z,40.85
2022-08-17T11:13:09.738Z,40.52
2022-08-17T11:18:18.363Z,40.03
2022-08-17T11:23:26.301Z,40.03
2022-08-17T11:28:33.536Z,39.72
2022-08-17T11:33:41.566Z,39.88
2022-08-17T11:38:50.330Z,39.88
2022-08-17T11:43:58.296Z,40.54
2022-08-17T11:49:06.007Z,41.33
2022-08-17T11:54:14.618Z,41.56
2022-08-17T11:59:27.811Z,41.78
2022-08-17T12:04:34.407Z,41.44
2022-08-17T12:09:42.278Z,40.65
2022-08-17T12:14:48.689Z,40.48
2022-08-17T12:19:55.413Z,39.92
2022-08-17T12:25:02.497Z,39.7
2022-08-17T12:30:10.808Z,40.1
2022-08-17T12:35:17.680Z,39.89
2022-08-17T12:40:24.539Z,39.7
2022-08-17T12:45:32.059Z,39.49
2022-08-17T12:50:39.826Z,39.56
2022-08-17T12:55:46.259Z,39.29
2022-08-17T13:00:54.938Z,39.42
2022-08-17T13:06:01.864Z,39.45
2022-08-17T13:11:09.078Z,39.61
2022-08-17T13:16:16.927Z,39.69
2022-08-17T13:21:25.254Z,40.26
2022-08-17T13:26:33.548Z,40.76
2022-08-17T13:31:41.799Z,41.6
2022-08-17T13:36:49.634Z,41.78
2022-08-17T13:41:56.041Z,42.1
2022-08-17T13:47:03.920Z,42.46
2022-08-17T13:52:12.520Z,42.56
2022-08-17T13:57:20.245Z,43.26
2022-08-17T14:02:27.450Z,43.42
2022-08-17T14:07:34.326Z,43.62
2022-08-17T14:12:42.831Z,43.72
2022-08-17T14:17:50.532Z,43.89
2022-08-17T14:22:58.497Z,43.46
2022-08-17T14:28:05.353Z,43.06
2022-08-17T14:33:13.354Z,42.36
2022-08-17T14:38:22.122Z,42.88
2022-08-17T14:43:29.497Z,43.4
2022-08-17T14:48:36.746Z,41.92
2022-08-17T14:53:45.048Z,41.93
2022-08-17T14:58:52.780Z,41.8
2022-08-17T15:04:04.788Z,40.66
2022-08-17T15:09:12.505Z,39.35
2022-08-17T15:14:19.736Z,38.44
2022-08-17T15:19:27.952Z,39.82
2022-08-17T15:24:34.778Z,39.97
2022-08-17T15:29:42.723Z,38.48
2022-08-17T15:34:51.028Z,36.94
2022-08-17T15:39:58.923Z,35.94
2022-08-17T15:45:06.761Z,34.76
2022-08-17T15:50:19.663Z,34.32
2022-08-17T15:55:27.191Z,33.97
2022-08-17T16:00:34.567Z,33.74
2022-08-17T16:05:41.051Z,33.5
2022-08-17T16:10:49.851Z,33.16
2022-08-17T16:15:56.447Z,32.76
2022-08-17T16:21:04.454Z,32.3
2022-08-17T16:26:12.628Z,32.06
2022-08-17T16:31:21.273Z,31.78
2022-08-17T16:36:28.912Z,31.53
2022-08-17T16:41:37.709Z,31.36
2022-08-17T16:46:44.340Z,31.05
2022-08-17T16:51:52.538Z,30.78
2022-08-17T16:57:00.635Z,30.56
2022-08-17T17:02:08.561Z,30.4
2022-08-17T17:07:15.866Z,30.25
2022-08-17T17:12:23.683Z,30.06
2022-08-17T17:17:31.682Z,29.9
2022-08-17T17:22:39.506Z,29.65
2022-08-17T17:27:46.860Z,29.33
2022-08-17T17:32:54.657Z,29.07
2022-08-17T17:38:02.558Z,28.78
2022-08-17T17:43:09.700Z,28.4
2022-08-17T17:48:16.986Z,27.82
2022-08-17T17:53:25.042Z,27.6
2022-08-17T17:58:32.508Z,27.3
2022-08-17T18:03:40.183Z,27.0
2022-08-17T18:08:47.562Z,26.62
2022-08-17T18:13:55.689Z,26.19
2022-08-17T18:19:03.295Z,25.66
2022-08-17T18:24:10.459Z,25.4
2022-08-17T18:29:17.749Z,25.24
2022-08-17T18:34:24.587Z,25.02
2022-08-17T18:39:33.280Z,24.69
2022-08-17T18:44:40.700Z,24.17
2022-08-17T18:49:48.192Z,23.68
2022-08-17T18:54:56.719Z,23.46
2022-08-17T19:00:10.784Z,23.23
2022-08-17T19:05:17.779Z,22.94
2022-08-17T19:10:24.895Z,22.66
2022-08-17T19:15:31.444Z,22.28
2022-08-17T19:20:38.658Z,22.1
2022-08-17T19:25:46.899Z,22.04
2022-08-17T19:30:53.698Z,21.9
2022-08-17T19:36:01.442Z,21.82
2022-08-17T19:41:10.199Z,21.51
2022-08-17T19:46:17.406Z,21.52
2022-08-17T19:51:26.759Z,21.26
2022-08-17T19:56:34.182Z,20.99
2022-08-17T20:01:42.616Z,20.9
2022-08-17T20:06:52.556Z,20.68
2022-08-17T20:12:00.182Z,20.53
2022-08-17T20:17:06.812Z,20.38
2022-08-17T20:22:14.014Z,20.22
2022-08-17T20:27:22.691Z,20.22
2022-08-17T20:32:30.618Z,20.4
2022-08-17T20:37:37.601Z,20.66
2022-08-17T20:42:45.051Z,20.62
2022-08-17T20:47:53.106Z,20.36
2022-08-17T20:53:01.052Z,20.34
2022-08-17T20:58:09.313Z,20.66
2022-08-17T21:03:16.092Z,20.66
2022-08-17T21:08:23.893Z,20.52
2022-08-17T21:13:31.769Z,20.39
2022-08-17T21:18:39.405Z,20.02
2022-08-17T21:23:47.488Z,19.83
2022-08-17T21:28:54.651Z,19.5
2022-08-17T21:34:01.856Z,19.21
2022-08-17T21:39:09.925Z,19.0
2022-08-17T21:44:19.914Z,18.85
2022-08-17T21:49:26.653Z,18.72
2022-08-17T21:54:33.859Z,18.8
2022-08-17T21:59:41.707Z,19.02
2022-08-17T22:04:49.994Z,18.98
2022-08-17T22:09:58.171Z,18.92
2022-08-17T22:15:05.958Z,18.9
2022-08-17T22:20:14.010Z,18.91
2022-08-17T22:25:22.542Z,19.04
2022-08-17T22:30:29.374Z,19.06
2022-08-17T22:35:37.021Z,19.02
2022-08-17T22:40:45.383Z,18.91
2022-08-17T22:45:53.737Z,18.64
2022-08-17T22:51:01.940Z,18.43
2022-08-17T22:56:09.218Z,18.36
2022-08-17T23:01:16.414Z,18.3
2022-08-17T23:06:23.414Z,18.42
2022-08-17T23:11:31.992Z,18.42
2022-08-17T23:16:40.577Z,18.32
2022-08-17T23:21:48.078Z,18.12
2022-08-17T23:26:55.857Z,18.04
2022-08-17T23:32:04.260Z,18.08
2022-08-17T23:37:11.342Z,18.07
2022-08-17T23:42:19.707Z,17.93
2022-08-17T23:47:27.819Z,17.96
2022-08-17T23:52:35.856Z,18.06
2022-08-17T23:57:44.135Z,18.03
